Selinsgrove, PA

6:12 AM EST on January 30, 2015 (GMT -0500)
Whiskey Ridge | Change Station
CLOSE
Current Station
Personal Weather Station
Location: Freeburg, PA
Elevation: 699 ft
Nearby Weather Stations

Elev 699 ft 40.78 °N, 76.94 °W | Updated 11 seconds ago

Snow
Snow
30.2 °F
Feels Like 30 °F
N
0.2
Wind Variable Wind from WNW
Gusts 2.5 mph

Today
High -- | Low -- °F
--% Chance of Precip.
Yesterday
High -- | Low -- °F
Precip. -- in
7:19 AM 5:22 PM
Waxing Gibbous, 82% visible
Pressure 29.91 in
Visibility 1.2 miles
Clouds Mostly Cloudy 1700 ft
Overcast 2800 ft
Windchill 30 °F
Dew Point 25 °F
Humidity 81%
Rainfall 0.00 in
Snow Depth Not available.
UV 0.0 out of 12
Pollen .10 out of 12
Air Quality Not available.
Flu Activity Not available.
SPECI KSEG 301100Z AUTO 18004KT 1 1/4SM -SN BR BKN017 OVC028 M02/M03 A2991 RMK AO2 P0001 T10171028

More Conditions Fewer Conditions

Pressure 29.91 in
Visibility 1.2 miles
Clouds Mostly Cloudy 1700 ft
Overcast 2800 ft
Windchill 30 °F
Dew Point 25 °F
Humidity 81%
Rainfall 0.00 in
Snow Depth Not available.
UV 0.0 out of 12
Pollen .10 out of 12
Air Quality Not available.
Flu Activity Not available.
SPECI KSEG 301100Z AUTO 18004KT 1 1/4SM -SN BR BKN017 OVC028 M02/M03 A2991 RMK AO2 P0001 T10171028

More Conditions Fewer Conditions

Nowcast | as of 4:14 am EST on January 30, 2015

Bands of light to moderate snow will continue to cross central Pennsylvania through 5 am. Little additional snow accumulation is expected during this time...but persons traveling early this morning should be alert for poor travel conditions and allow extra time to reach your destination.

×

10-Day Weather Forecast

Almanac

Astronomy

Jan. 30, 2015 Rise Set
Actual Time
Civil Twilight
Nautical Twilight
Astronomical Twilight
Moon
Length of Visible Light
Length of Day
Tomorrow will be .
, % of the Moon is Illuminated

Today's Extremes

State Highs State Lows

Community

WunderPhotos

Upload Photos

1,791,737 photos uploaded!

WunderBlogs® & News

Nearby

Air Quality

  Air Quality AQ Index Pollutant
Not available.

Snow Depth

Station Depth Elevation

Earthquake Activity

City Distance Mag. Time & Date
Minimum magnitude displayed is 2.5.

Coastal Water Temperatures

Place Temperature

Nearby Weather Stations